createdAt,value
2022-11-29T00:00:49.627Z,123.3
2022-11-29T00:02:51.138Z,110.2
2022-11-29T00:04:55.677Z,139.9
2022-11-29T00:06:57.047Z,123
2022-11-29T00:08:58.397Z,96.7
2022-11-29T00:10:59.792Z,180.7
2022-11-29T00:13:01.134Z,153.1
2022-11-29T00:17:03.869Z,135.6
2022-11-29T00:21:09.851Z,140.9
2022-11-29T00:23:11.232Z,139.5
2022-11-29T00:25:12.578Z,139.8
2022-11-29T00:31:16.832Z,135.5
2022-11-29T00:33:21.341Z,199.9
2022-11-29T00:35:22.668Z,238.8
2022-11-29T00:37:24.035Z,190.7
2022-11-29T00:42:29.096Z,161.4
2022-11-29T00:44:30.445Z,148.4
2022-11-29T00:46:35.152Z,120.8
2022-11-29T00:52:39.208Z,142.9
2022-11-29T00:54:40.558Z,170.2
2022-11-29T00:56:41.947Z,102.3
2022-11-29T00:58:43.293Z,152.6
2022-11-29T01:02:49.358Z,153
2022-11-29T01:04:50.678Z,109.6
2022-11-29T01:06:52.032Z,157.3
2022-11-29T01:15:00.787Z,189.4
2022-11-29T01:17:02.258Z,231
2022-11-29T01:21:04.886Z,274
2022-11-29T01:23:06.250Z,238.4
2022-11-29T01:29:13.612Z,247.1
2022-11-29T01:33:16.357Z,157
2022-11-29T01:38:21.395Z,185.6
2022-11-29T01:40:22.776Z,130.2
2022-11-29T01:44:28.809Z,221.5
2022-11-29T01:46:30.198Z,158.6
2022-11-29T01:48:31.532Z,132.5
2022-11-29T01:50:32.876Z,171.4
2022-11-29T01:54:35.610Z,206.7
2022-11-29T02:00:43.014Z,150
2022-11-29T02:04:46.027Z,131.4
2022-11-29T02:06:47.112Z,140.2
2022-11-29T02:08:48.498Z,164.2
2022-11-29T02:10:53.167Z,212.5
2022-11-29T02:12:54.565Z,157.4
2022-11-29T02:14:55.887Z,149.2
2022-11-29T02:16:57.277Z,138.1
2022-11-29T02:23:01.354Z,154.1
2022-11-29T02:27:07.410Z,209.2
2022-11-29T02:29:08.753Z,200
2022-11-29T02:30:11.098Z,214
2022-11-29T02:32:12.490Z,227
2022-11-29T02:38:19.838Z,189.8
2022-11-29T02:40:21.205Z,214.9
2022-11-29T02:42:22.595Z,212.7
2022-11-29T02:44:23.935Z,218.5
2022-11-29T02:46:25.336Z,304
2022-11-29T02:48:26.679Z,348
2022-11-29T02:52:32.709Z,473.8
2022-11-29T02:54:34.045Z,398.7
2022-11-29T03:00:38.119Z,153.5
2022-11-29T03:02:39.581Z,182.4
2022-11-29T03:04:40.837Z,283.4
2022-11-29T03:06:45.507Z,245.6
2022-11-29T03:08:46.871Z,193.9
2022-11-29T03:10:48.227Z,168.3
2022-11-29T03:12:49.592Z,126.7
2022-11-29T03:14:50.978Z,140.9
2022-11-29T03:16:52.340Z,169.2
2022-11-29T03:18:53.687Z,117.4
2022-11-29T03:20:58.352Z,121.9
2022-11-29T03:25:01.066Z,179
2022-11-29T03:27:24.058Z,189.9
2022-11-29T03:29:25.433Z,110.7
2022-11-29T03:31:26.812Z,167.1
2022-11-29T03:33:31.440Z,206.7
2022-11-29T03:35:32.811Z,293.8
2022-11-29T03:37:34.181Z,146.7
2022-11-29T03:39:35.568Z,169.2
2022-11-29T03:41:36.912Z,181.4
2022-11-29T03:43:38.257Z,241.1
2022-11-29T03:45:39.621Z,205
2022-11-29T03:47:44.285Z,365.8
2022-11-29T03:49:45.663Z,161.5
2022-11-29T03:51:47.043Z,128.2
2022-11-29T03:57:51.144Z,154.3
2022-11-29T03:59:52.491Z,318.4
2022-11-29T04:01:57.258Z,278.2
2022-11-29T04:03:58.527Z,321
2022-11-29T04:05:59.892Z,351.1
2022-11-29T04:08:01.317Z,340.2
2022-11-29T04:10:02.612Z,458.9
2022-11-29T04:12:03.962Z,316.3
2022-11-29T04:14:05.300Z,249.2
2022-11-29T04:16:10.064Z,322.4
2022-11-29T04:18:11.343Z,252.5
2022-11-29T04:20:12.731Z,349.6
2022-11-29T04:21:15.053Z,339.2
2022-11-29T04:23:16.414Z,382.1
2022-11-29T04:25:17.786Z,364.4
2022-11-29T04:29:23.819Z,203.8
2022-11-29T04:31:25.250Z,236.5
2022-11-29T04:33:26.523Z,158
2022-11-29T04:41:32.002Z,370
2022-11-29T04:45:37.990Z,351.9
2022-11-29T04:47:39.346Z,457.3
2022-11-29T04:49:40.710Z,238.8
2022-11-29T04:51:42.141Z,145.2
2022-11-29T04:53:43.441Z,157.8
2022-11-29T04:59:50.831Z,486.7
2022-11-29T05:01:52.311Z,544.6
2022-11-29T05:03:57.059Z,513.8
2022-11-29T05:05:54.968Z,560.7
2022-11-29T05:07:56.298Z,322.6
2022-11-29T05:09:57.620Z,213.5
2022-11-29T05:12:03.844Z,367.6
2022-11-29T05:14:05.176Z,153.7
2022-11-29T05:16:06.582Z,261.5
2022-11-29T05:17:08.844Z,183.1
2022-11-29T05:19:10.189Z,263.8
2022-11-29T05:21:11.569Z,278.5
2022-11-29T05:23:12.911Z,198.9
2022-11-29T05:31:21.696Z,221.8
2022-11-29T05:33:23.007Z,184.5
2022-11-29T05:35:24.368Z,157.9
2022-11-29T05:37:25.744Z,203.3
2022-11-29T05:41:31.767Z,280.9
2022-11-29T05:43:33.115Z,285.9
2022-11-29T05:45:34.478Z,299.8
2022-11-29T05:47:35.827Z,369.5
2022-11-29T05:49:37.198Z,385
2022-11-29T05:51:38.576Z,226.4
2022-11-29T05:53:43.230Z,207.6
2022-11-29T05:55:44.562Z,291.9
2022-11-29T05:57:45.927Z,206
2022-11-29T05:59:47.302Z,238.8
2022-11-29T06:01:48.726Z,101.8
2022-11-29T06:03:49.988Z,271.4
2022-11-29T06:05:51.529Z,337.6
2022-11-29T06:07:56.096Z,206.3
2022-11-29T06:10:01.505Z,340.7
2022-11-29T06:13:01.063Z,323.1
2022-11-29T06:15:02.418Z,343.5
2022-11-29T06:17:03.796Z,345.5
2022-11-29T06:19:05.212Z,365.6
2022-11-29T06:23:11.208Z,317.4
2022-11-29T06:25:12.570Z,304.6
2022-11-29T06:27:13.948Z,297.2
2022-11-29T06:29:15.270Z,197.7
2022-11-29T06:31:16.667Z,187.7
2022-11-29T06:33:17.985Z,199.6
2022-11-29T06:35:22.641Z,181.8
2022-11-29T06:37:24.016Z,236.7
2022-11-29T06:39:25.402Z,210.9
2022-11-29T06:41:26.724Z,194.8
2022-11-29T06:43:28.089Z,245
2022-11-29T06:45:29.443Z,208.3
2022-11-29T06:47:30.784Z,257.7
2022-11-29T06:49:35.465Z,263
2022-11-29T06:51:36.824Z,95.4
2022-11-29T06:53:38.157Z,103.9
2022-11-29T06:55:39.643Z,123.2
2022-11-29T06:57:40.875Z,133.8
2022-11-29T06:59:42.255Z,144.8
2022-11-29T07:01:43.679Z,79.1
2022-11-29T07:03:48.282Z,114.9
2022-11-29T07:05:49.632Z,305
2022-11-29T07:07:51.092Z,302.2
2022-11-29T07:10:17.958Z,197.6
2022-11-29T07:12:19.321Z,241.8
2022-11-29T07:14:20.676Z,265.4
2022-11-29T07:16:25.325Z,154.9
2022-11-29T07:24:30.764Z,96.2
2022-11-29T07:26:32.097Z,203.7
2022-11-29T07:28:33.466Z,93
2022-11-29T07:30:38.130Z,142.7
2022-11-29T07:32:39.483Z,176.8
2022-11-29T07:34:40.829Z,324.2
2022-11-29T07:36:42.223Z,281.6
2022-11-29T07:38:43.581Z,192.9
2022-11-29T07:40:44.935Z,115.8
2022-11-29T07:42:46.272Z,129.6
2022-11-29T07:44:50.974Z,127.9
2022-11-29T07:46:52.407Z,121.6
2022-11-29T07:48:53.690Z,136.4
2022-11-29T07:50:55.059Z,277.6
2022-11-29T07:52:56.409Z,40.5
2022-11-29T07:54:57.752Z,77.1
2022-11-29T07:56:59.128Z,84.6
2022-11-29T07:59:03.829Z,62.2
2022-11-29T08:01:05.146Z,51.9
2022-11-29T08:03:06.461Z,63.4
2022-11-29T08:04:08.814Z,79.1
2022-11-29T08:06:10.132Z,86.3
2022-11-29T08:08:11.522Z,110.9
2022-11-29T08:10:12.842Z,104.5
2022-11-29T08:16:20.225Z,106
2022-11-29T08:18:21.600Z,119.7
2022-11-29T08:20:22.935Z,125.4
2022-11-29T08:22:24.296Z,59
2022-11-29T08:24:25.647Z,121
2022-11-29T08:26:31.791Z,118.2
2022-11-29T08:28:31.662Z,108.3
2022-11-29T08:30:33.011Z,56.6
2022-11-29T08:32:34.374Z,105.8
2022-11-29T08:38:38.407Z,107.1
2022-11-29T08:40:43.110Z,85.8
2022-11-29T08:42:44.508Z,94.5
2022-11-29T08:44:46.270Z,84.8
2022-11-29T08:46:47.228Z,103.8
2022-11-29T08:48:48.619Z,110.1
2022-11-29T08:50:50.000Z,112.7
2022-11-29T08:52:51.361Z,86.1
2022-11-29T09:00:01.029Z,125.2
2022-11-29T09:02:02.486Z,77.8
2022-11-29T09:04:03.749Z,84.5
2022-11-29T09:06:08.981Z,130.7
2022-11-29T09:08:09.752Z,60.9
2022-11-29T09:10:11.129Z,87.8
2022-11-29T09:12:12.467Z,87.8
2022-11-29T09:14:13.817Z,86.8
2022-11-29T09:16:15.231Z,61.2
2022-11-29T09:26:25.295Z,71
2022-11-29T09:28:26.641Z,62.4
2022-11-29T09:30:27.992Z,86.6
2022-11-29T09:34:30.764Z,69.8
2022-11-29T09:36:35.426Z,65
2022-11-29T09:38:36.748Z,74.6
2022-11-29T09:40:38.121Z,64.3
2022-11-29T09:42:39.498Z,93.4
2022-11-29T09:44:40.880Z,66.7
2022-11-29T09:46:42.243Z,58.8
2022-11-29T09:48:43.584Z,68.4
2022-11-29T09:50:48.250Z,68.9
2022-11-29T09:52:49.627Z,48.6
2022-11-29T09:54:50.979Z,72.3
2022-11-29T09:55:53.324Z,67.7
2022-11-29T09:57:54.694Z,46.2
2022-11-29T09:59:56.040Z,53.4
2022-11-29T10:01:57.425Z,45.4
2022-11-29T10:04:02.049Z,58.7
2022-11-29T10:08:04.824Z,51.6
2022-11-29T10:10:06.196Z,57.5
2022-11-29T10:14:08.923Z,52.9
2022-11-29T10:16:10.383Z,56.2
2022-11-29T10:18:14.949Z,58.3
2022-11-29T10:20:16.314Z,69.3
2022-11-29T10:22:17.698Z,52
2022-11-29T10:24:19.040Z,53.1
2022-11-29T10:26:20.415Z,71.9
2022-11-29T10:28:21.773Z,35
2022-11-29T10:30:23.261Z,42.7
2022-11-29T10:32:27.838Z,43.5
2022-11-29T10:34:29.205Z,57.8
2022-11-29T10:36:30.544Z,59
2022-11-29T10:38:32.261Z,49.6
2022-11-29T10:40:33.327Z,57.2
2022-11-29T10:42:34.674Z,57.2
2022-11-29T10:44:36.039Z,50.6
2022-11-29T10:46:40.750Z,87.3
2022-11-29T10:48:42.040Z,50.6
2022-11-29T10:50:43.459Z,61.7
2022-11-29T10:55:01.470Z,39.5
2022-11-29T10:57:02.837Z,61.4
2022-11-29T10:59:07.516Z,53.5
2022-11-29T11:05:13.305Z,51.6
2022-11-29T11:07:14.532Z,70.8
2022-11-29T11:09:15.875Z,61.1
2022-11-29T11:17:24.678Z,66.6
2022-11-29T11:19:26.040Z,53.8
2022-11-29T11:21:27.411Z,56.6
2022-11-29T11:23:28.830Z,64
2022-11-29T11:25:30.153Z,70.6
2022-11-29T11:27:34.857Z,64.7
2022-11-29T11:29:36.237Z,59
2022-11-29T11:31:37.579Z,68.3
2022-11-29T11:33:38.950Z,65.6
2022-11-29T11:35:40.339Z,54.1
2022-11-29T11:37:41.735Z,66
2022-11-29T11:39:43.207Z,66.9
2022-11-29T11:41:47.761Z,81.4
2022-11-29T11:43:49.162Z,73.1
2022-11-29T11:45:50.563Z,66.3
2022-11-29T11:46:52.861Z,68.4
2022-11-29T11:48:54.221Z,70.9
2022-11-29T11:50:55.630Z,65.3
2022-11-29T11:52:56.986Z,64.3
2022-11-29T11:55:01.672Z,64.9
2022-11-29T11:57:03.036Z,57.4
2022-11-29T11:59:04.398Z,73.2
2022-11-29T12:01:06.387Z,61.7
2022-11-29T12:03:07.229Z,64.4
2022-11-29T12:05:08.541Z,90.5
2022-11-29T12:07:09.881Z,57.7
2022-11-29T12:09:14.573Z,60.1
2022-11-29T12:11:15.952Z,56.5
2022-11-29T12:13:17.308Z,61.9
2022-11-29T12:15:18.688Z,72.7
2022-11-29T12:17:20.464Z,41.5
2022-11-29T12:19:21.466Z,52.9
2022-11-29T12:21:22.863Z,63.8
2022-11-29T12:23:27.495Z,57.9
2022-11-29T12:29:31.664Z,48.1
2022-11-29T12:31:33.090Z,38.5
2022-11-29T12:33:34.413Z,49.2
2022-11-29T12:35:35.810Z,62.2
2022-11-29T12:37:40.464Z,54.7
2022-11-29T12:39:41.844Z,45.1
2022-11-29T12:41:43.209Z,41.2
2022-11-29T12:44:47.111Z,49.3
2022-11-29T12:46:48.328Z,59.9
2022-11-29T12:48:49.661Z,60.9
2022-11-29T12:50:54.336Z,49.5
2022-11-29T12:52:55.695Z,53
2022-11-29T12:54:57.053Z,71.7
2022-11-29T12:56:58.445Z,59.1
2022-11-29T12:58:59.796Z,60.2
2022-11-29T13:03:02.661Z,49.9
2022-11-29T13:05:07.260Z,63.5
2022-11-29T13:07:08.604Z,47.3
2022-11-29T13:09:09.988Z,51.7
2022-11-29T13:11:11.329Z,55.8
2022-11-29T13:13:12.730Z,67.4
2022-11-29T13:15:14.080Z,52.3
2022-11-29T13:17:15.452Z,53
2022-11-29T13:21:21.533Z,37
2022-11-29T13:23:39.026Z,39.8
2022-11-29T13:25:24.251Z,36.1
2022-11-29T13:27:25.611Z,45.7
2022-11-29T13:29:26.982Z,43.3
2022-11-29T13:31:28.431Z,42.6
2022-11-29T13:33:33.051Z,37
2022-11-29T13:35:34.418Z,56.8
2022-11-29T13:37:35.768Z,41.3
2022-11-29T13:38:38.118Z,41.6
2022-11-29T13:40:39.496Z,55.6
2022-11-29T13:42:40.865Z,46.4
2022-11-29T13:44:42.375Z,48
2022-11-29T13:46:46.951Z,35.1
2022-11-29T13:48:48.261Z,40.9
2022-11-29T13:50:49.657Z,58.2
2022-11-29T13:52:51.066Z,41.4
2022-11-29T13:54:52.396Z,48
2022-11-29T13:56:53.778Z,29.6
2022-11-29T13:58:55.122Z,41
2022-11-29T14:00:59.805Z,39.5
2022-11-29T14:03:01.204Z,54.2
2022-11-29T14:05:02.560Z,33.7
2022-11-29T14:07:03.897Z,42.5
2022-11-29T14:09:19.407Z,41.8
2022-11-29T14:11:06.693Z,38.6
2022-11-29T14:13:08.042Z,34
2022-11-29T14:15:12.719Z,47.2
2022-11-29T14:17:14.110Z,45.3
2022-11-29T14:19:15.435Z,46.1
2022-11-29T14:21:16.819Z,39.8
2022-11-29T14:23:18.240Z,28.6
2022-11-29T14:25:43.327Z,44.9
2022-11-29T14:27:20.924Z,26.2
2022-11-29T14:29:25.616Z,40.6
2022-11-29T14:31:27.026Z,41.9
2022-11-29T14:33:28.380Z,30.5
2022-11-29T14:35:57.188Z,39.2
2022-11-29T14:37:58.563Z,26.4
2022-11-29T14:39:59.901Z,42.3
2022-11-29T14:42:04.580Z,39.1
2022-11-29T14:44:05.959Z,42.7
2022-11-29T14:46:07.332Z,42.7
2022-11-29T14:50:10.051Z,33
2022-11-29T14:52:11.443Z,33.9
2022-11-29T14:54:12.821Z,35.6
2022-11-29T14:56:17.498Z,40.2
2022-11-29T14:58:18.866Z,36.2
2022-11-29T15:00:20.245Z,49.1
2022-11-29T15:06:24.372Z,36.9
2022-11-29T15:08:25.714Z,31.4
2022-11-29T15:14:33.123Z,29.7
2022-11-29T15:16:34.570Z,33.2
2022-11-29T15:18:35.866Z,48
2022-11-29T15:20:37.226Z,44.8
2022-11-29T15:22:38.586Z,38.4
2022-11-29T15:26:44.635Z,40.8
2022-11-29T15:29:48.329Z,41.7
2022-11-29T15:31:49.767Z,37.9
2022-11-29T15:33:51.065Z,40.4
2022-11-29T15:35:52.427Z,39.7
2022-11-29T15:37:57.124Z,49.5
2022-11-29T15:39:58.463Z,64.6
2022-11-29T15:41:59.835Z,34.1
2022-11-29T15:44:01.222Z,44.5
2022-11-29T15:46:02.641Z,79.3
2022-11-29T15:48:03.951Z,50.4
2022-11-29T15:52:09.978Z,44.6
2022-11-29T15:54:13.216Z,46.9
2022-11-29T15:56:12.686Z,48.4
2022-11-29T15:58:14.093Z,42.3
2022-11-29T16:02:16.889Z,45.6
2022-11-29T16:04:18.169Z,40.6
2022-11-29T16:06:22.858Z,34
2022-11-29T16:08:24.203Z,41.7
2022-11-29T16:10:29.197Z,34.5
2022-11-29T16:12:26.958Z,40
2022-11-29T16:14:28.333Z,56.4
2022-11-29T16:16:29.797Z,40.4
2022-11-29T16:18:31.068Z,44.6
2022-11-29T16:20:35.721Z,44.2
2022-11-29T16:22:37.089Z,53.4
2022-11-29T16:24:38.448Z,41
2022-11-29T16:25:40.796Z,56.2
2022-11-29T16:31:44.932Z,39.8
2022-11-29T16:33:49.569Z,42.8
2022-11-29T16:35:50.900Z,50.6
2022-11-29T16:37:52.269Z,49.6
2022-11-29T16:39:53.655Z,36.4
2022-11-29T16:41:55.006Z,62.1
2022-11-29T16:43:56.391Z,35
2022-11-29T16:45:57.783Z,46
2022-11-29T16:50:03.813Z,43.9
2022-11-29T16:52:06.717Z,42.6
2022-11-29T16:54:08.056Z,27.4
2022-11-29T16:56:09.414Z,49.2
2022-11-29T16:58:10.835Z,38.5
2022-11-29T17:00:12.184Z,44.8
2022-11-29T17:02:16.930Z,41.3
2022-11-29T17:04:24.725Z,30.1
2022-11-29T17:06:19.624Z,34.2
2022-11-29T17:08:20.969Z,41.7
2022-11-29T17:10:22.359Z,38.8
2022-11-29T17:12:23.717Z,42.3
2022-11-29T17:14:25.105Z,44.2
2022-11-29T17:16:29.803Z,36.4
2022-11-29T17:18:31.090Z,36.9
2022-11-29T17:20:32.465Z,38
2022-11-29T17:21:34.808Z,35.6
2022-11-29T17:27:38.938Z,40.4
2022-11-29T17:29:43.639Z,36.4
2022-11-29T17:35:47.725Z,37.9
2022-11-29T17:37:49.083Z,37.8
2022-11-29T17:39:50.436Z,30.3
2022-11-29T17:41:51.807Z,39.9
2022-11-29T17:43:56.473Z,31.6
2022-11-29T17:45:58.066Z,35
2022-11-29T17:47:59.201Z,34.8
2022-11-29T17:50:00.553Z,34.7
2022-11-29T17:52:01.924Z,40.8
2022-11-29T17:54:03.281Z,32.9
2022-11-29T17:56:04.716Z,34
2022-11-29T17:58:09.332Z,35.4
2022-11-29T18:00:10.689Z,28.6
2022-11-29T18:02:12.166Z,40.8
2022-11-29T18:04:13.463Z,53.3
2022-11-29T18:10:17.561Z,32.6
2022-11-29T18:14:24.053Z,37.1
2022-11-29T18:16:25.041Z,40.6
2022-11-29T18:18:51.746Z,44.1
2022-11-29T18:20:53.137Z,45.3
2022-11-29T18:22:54.493Z,33.5
2022-11-29T18:25:22.667Z,32.5
2022-11-29T18:27:00.518Z,34.9
2022-11-29T18:29:01.859Z,35.3
2022-11-29T18:31:03.311Z,34
2022-11-29T18:33:04.605Z,39.4
2022-11-29T18:35:05.983Z,39.7
2022-11-29T18:37:11.091Z,46.2
2022-11-29T18:39:12.001Z,36.5
2022-11-29T18:41:13.368Z,51.5
2022-11-29T18:43:14.727Z,46.2
2022-11-29T18:47:17.444Z,46.5
2022-11-29T18:51:20.187Z,45.7
2022-11-29T18:57:27.601Z,47
2022-11-29T18:59:28.954Z,57.7
2022-11-29T19:01:30.367Z,49.1
2022-11-29T19:07:37.787Z,64.2
2022-11-29T19:09:39.084Z,44.6
2022-11-29T19:11:40.478Z,57.2
2022-11-29T19:12:42.792Z,53.9
2022-11-29T19:14:49.667Z,53.3
2022-11-29T19:16:45.537Z,48.2
2022-11-29T19:18:46.898Z,50.6
2022-11-29T19:20:51.603Z,51.3
2022-11-29T19:22:57.477Z,47.6
2022-11-29T19:24:54.312Z,48.9
2022-11-29T19:26:55.692Z,54.7
2022-11-29T19:28:57.081Z,55.9
2022-11-29T19:30:58.477Z,63.2
2022-11-29T19:32:59.823Z,56.4
2022-11-29T19:35:04.493Z,44.8
2022-11-29T19:37:05.837Z,74.4
2022-11-29T19:39:07.211Z,50.7
2022-11-29T19:41:08.575Z,45.7
2022-11-29T19:43:09.941Z,78.9
2022-11-29T19:45:16.993Z,47.2
2022-11-29T19:47:12.695Z,50.8
2022-11-29T19:49:17.367Z,74.2
2022-11-29T19:51:18.720Z,59.9
2022-11-29T19:53:20.052Z,65
2022-11-29T19:55:21.430Z,52.2
2022-11-29T19:57:22.942Z,64.3
2022-11-29T19:59:24.196Z,61.1
2022-11-29T20:03:30.229Z,59.3
2022-11-29T20:05:31.567Z,57.3
2022-11-29T20:07:32.955Z,51.4
2022-11-29T20:12:37.977Z,55.9
2022-11-29T20:14:39.357Z,48.1
2022-11-29T20:16:44.004Z,60.5
2022-11-29T20:18:50.483Z,71
2022-11-29T20:20:46.754Z,46.7
2022-11-29T20:22:48.105Z,31.9
2022-11-29T20:24:49.488Z,28.5
2022-11-29T20:26:50.837Z,22.8
2022-11-29T20:28:52.222Z,29.2
2022-11-29T20:30:56.966Z,27.7
2022-11-29T20:32:58.244Z,29.1
2022-11-29T20:34:59.610Z,37.3
2022-11-29T20:37:00.942Z,22.3
2022-11-29T20:39:02.324Z,29.1
2022-11-29T20:41:03.799Z,27
2022-11-29T20:43:05.072Z,35.7
2022-11-29T20:45:09.722Z,32.4
2022-11-29T20:47:11.089Z,33.7
2022-11-29T20:57:17.931Z,31.7
2022-11-29T20:59:22.595Z,38.6
2022-11-29T21:04:27.660Z,32.6
2022-11-29T21:06:29.015Z,24.8
2022-11-29T21:08:30.354Z,30.7
2022-11-29T21:10:31.728Z,34.6
2022-11-29T21:12:36.415Z,26.1
2022-11-29T21:14:37.776Z,29.1
2022-11-29T21:16:39.140Z,25.1
2022-11-29T21:18:40.467Z,33.5
2022-11-29T21:20:41.832Z,31.6
2022-11-29T21:22:43.209Z,28.3
2022-11-29T21:24:44.941Z,38.7
2022-11-29T21:26:49.232Z,35
2022-11-29T21:28:50.585Z,39.7
2022-11-29T21:30:51.994Z,35.1
2022-11-29T21:32:53.315Z,36.8
2022-11-29T21:34:54.689Z,25.9
2022-11-29T21:36:56.034Z,29.8
2022-11-29T21:39:00.841Z,9.1
2022-11-29T21:41:02.047Z,31.2
2022-11-29T21:43:03.428Z,12.7
2022-11-29T21:49:07.451Z,23
2022-11-29T21:51:08.830Z,35.2
2022-11-29T21:53:10.217Z,36.9
2022-11-29T21:59:17.580Z,30.8
2022-11-29T22:01:34.439Z,43.9
2022-11-29T22:03:35.724Z,32.3
2022-11-29T22:05:37.102Z,33.4
2022-11-29T22:07:41.815Z,27.5
2022-11-29T22:09:43.086Z,43.9
2022-11-29T22:11:44.466Z,36.6
2022-11-29T22:13:45.826Z,31.3
2022-11-29T22:15:47.232Z,37
2022-11-29T22:17:48.563Z,37.8
2022-11-29T22:19:49.930Z,26
2022-11-29T22:21:54.584Z,41.9
2022-11-29T22:23:55.922Z,41.2
2022-11-29T22:25:57.314Z,37.1
2022-11-29T22:27:58.649Z,35.5
2022-11-29T22:30:00.022Z,37.5
2022-11-29T22:32:01.360Z,36.9
2022-11-29T22:34:02.729Z,34.3
2022-11-29T22:36:07.429Z,39.8
2022-11-29T22:38:08.769Z,27.5
2022-11-29T22:40:10.147Z,37.6
2022-11-29T22:42:13.019Z,26.1
2022-11-29T22:44:14.343Z,27
2022-11-29T22:46:15.922Z,34.2
2022-11-29T22:48:17.110Z,31.3
2022-11-29T22:52:23.111Z,40.5
2022-11-29T22:54:24.426Z,41.2
2022-11-29T22:57:28.121Z,44.2
2022-11-29T22:59:29.492Z,34.1
2022-11-29T23:07:38.248Z,28.7
2022-11-29T23:11:40.921Z,43.5
2022-11-29T23:13:42.266Z,33.2
2022-11-29T23:15:43.599Z,37
2022-11-29T23:17:48.264Z,45.2
2022-11-29T23:19:49.650Z,36.2
2022-11-29T23:21:51.010Z,31.7
2022-11-29T23:23:56.407Z,34.9
2022-11-29T23:25:53.676Z,34.6
2022-11-29T23:27:55.024Z,37.1
2022-11-29T23:32:01.164Z,40.3
2022-11-29T23:34:02.480Z,28.3
2022-11-29T23:36:03.835Z,39
2022-11-29T23:42:07.912Z,36.6
2022-11-29T23:51:18.956Z,36.1
2022-11-29T23:53:20.284Z,41.1
2022-11-29T23:55:21.665Z,41
2022-11-29T23:57:23.072Z,36.4
2022-11-29T23:59:27.715Z,42.3
